createdAt,value
2018-06-17T00:02:01.233Z,7.9
2018-06-17T00:07:56.233Z,7.72
2018-06-17T00:13:51.204Z,7.21
2018-06-17T00:19:46.217Z,8
2018-06-17T00:25:41.241Z,7.28
2018-06-17T00:31:36.250Z,7.74
2018-06-17T00:37:31.254Z,8.1
2018-06-17T00:43:26.247Z,7.37
2018-06-17T00:49:21.193Z,8.17
2018-06-17T00:55:16.198Z,7.78
2018-06-17T01:01:11.243Z,7.62
2018-06-17T01:07:06.201Z,8.14
2018-06-17T01:13:01.207Z,7.97
2018-06-17T01:18:56.294Z,7.54
2018-06-17T01:24:51.202Z,7.97
2018-06-17T01:30:46.233Z,8.04
2018-06-17T01:36:41.229Z,7.77
2018-06-17T01:42:36.218Z,7.11
2018-06-17T01:48:31.233Z,7.94
2018-06-17T01:54:26.336Z,8.03
2018-06-17T02:00:21.274Z,7.4
2018-06-17T02:06:16.210Z,7.68
2018-06-17T02:12:11.238Z,8.76
2018-06-17T02:18:06.196Z,8.93
2018-06-17T02:24:01.234Z,8.75
2018-06-17T02:29:56.272Z,8.76
2018-06-17T02:35:51.313Z,9.2
2018-06-17T02:41:46.217Z,9.08
2018-06-17T02:47:41.231Z,8.91
2018-06-17T02:53:36.218Z,9.26
2018-06-17T02:59:31.247Z,8.37
2018-06-17T03:05:26.232Z,8.45
2018-06-17T03:11:21.242Z,8.48
2018-06-17T03:17:16.247Z,8.26
2018-06-17T03:23:11.206Z,8.52
2018-06-17T03:29:06.244Z,8.63
2018-06-17T03:35:01.279Z,8.69
2018-06-17T03:40:56.261Z,9.04
2018-06-17T03:46:51.268Z,8.61
2018-06-17T03:52:46.253Z,8.72
2018-06-17T03:58:41.274Z,8.79
2018-06-17T04:04:36.345Z,9.37
2018-06-17T04:10:31.263Z,9.17
2018-06-17T04:16:26.274Z,9.26
2018-06-17T04:22:21.277Z,8.77
2018-06-17T04:28:16.241Z,8.55
2018-06-17T04:34:11.221Z,10.37
2018-06-17T04:40:06.247Z,9.26
2018-06-17T04:46:01.216Z,8.89
2018-06-17T04:51:56.257Z,9.5
2018-06-17T04:57:51.231Z,8.87
2018-06-17T05:03:46.245Z,8.76
2018-06-17T05:09:41.303Z,8.55
2018-06-17T05:15:36.229Z,8.29
2018-06-17T05:21:31.253Z,8.39
2018-06-17T05:27:26.262Z,8.21
2018-06-17T05:33:21.277Z,8.62
2018-06-17T05:39:16.244Z,8.83
2018-06-17T05:45:11.287Z,8.75
2018-06-17T05:51:06.281Z,8.83
2018-06-17T05:57:01.216Z,8.92
2018-06-17T06:02:56.259Z,9.35
2018-06-17T06:08:51.249Z,9.46
2018-06-17T06:14:46.253Z,12.1
2018-06-17T06:20:41.291Z,10.67
2018-06-17T06:26:36.274Z,9.85
2018-06-17T06:32:31.242Z,10.8
2018-06-17T06:38:26.300Z,10.07
2018-06-17T06:44:21.224Z,9.49
2018-06-17T06:50:16.270Z,10.5
2018-06-17T06:56:11.253Z,9.72
2018-06-17T07:02:06.253Z,11.3
2018-06-17T07:08:01.242Z,10.11
2018-06-17T07:13:56.294Z,10.09
2018-06-17T07:19:51.300Z,10.38
2018-06-17T07:25:46.305Z,10.32
2018-06-17T07:31:41.262Z,11.13
2018-06-17T07:37:36.275Z,13.08
2018-06-17T07:43:31.267Z,18.93
2018-06-17T07:49:26.364Z,13.94
2018-06-17T07:55:21.305Z,12.16
2018-06-17T08:01:16.273Z,12.77
2018-06-17T08:07:11.280Z,14.87
2018-06-17T08:13:06.274Z,10.7
2018-06-17T08:19:01.324Z,10.67
2018-06-17T08:24:56.270Z,10.1
2018-06-17T08:30:51.236Z,10.34
2018-06-17T08:36:46.333Z,8.99
2018-06-17T08:42:41.262Z,9.17
2018-06-17T08:48:36.275Z,10.11
2018-06-17T08:54:31.306Z,11.95
2018-06-17T09:00:26.264Z,10.65
2018-06-17T09:06:21.273Z,12.06
2018-06-17T09:12:16.308Z,10.7
2018-06-17T09:18:11.288Z,10.68
2018-06-17T09:24:06.303Z,11.07
2018-06-17T09:30:01.299Z,11.17
2018-06-17T09:35:56.277Z,10.94
2018-06-17T09:41:51.296Z,10.88
2018-06-17T09:47:46.270Z,12.93
2018-06-17T09:53:41.262Z,12.1
2018-06-17T09:59:36.280Z,11.13
2018-06-17T10:05:31.269Z,10.09
2018-06-17T10:11:26.310Z,11.75
2018-06-17T10:17:21.292Z,12.17
2018-06-17T10:23:16.279Z,11.93
2018-06-17T10:29:11.327Z,12.52
2018-06-17T10:35:06.345Z,11.39
2018-06-17T10:41:01.345Z,9.82
2018-06-17T10:46:56.278Z,10.52
2018-06-17T10:52:51.257Z,6.67
2018-06-17T10:58:46.334Z,8.21
2018-06-17T11:04:41.261Z,8.65
2018-06-17T11:10:36.296Z,7.54
2018-06-17T11:16:31.335Z,4.59
2018-06-17T11:22:26.273Z,7.36
2018-06-17T11:28:21.282Z,7.56
2018-06-17T11:34:16.287Z,7.51
2018-06-17T11:40:11.300Z,4.59
2018-06-17T11:46:06.282Z,6.64
2018-06-17T11:52:01.287Z,5.95
2018-06-17T11:57:56.276Z,8.27
2018-06-17T12:03:51.272Z,5.12
2018-06-17T12:09:46.270Z,5.29
2018-06-17T12:15:41.259Z,5.33
2018-06-17T12:21:36.303Z,5.79
2018-06-17T12:27:31.312Z,5.69
2018-06-17T12:33:26.372Z,6.1
2018-06-17T12:39:21.283Z,6.08
2018-06-17T12:45:16.317Z,6.9
2018-06-17T12:51:11.284Z,5.56
2018-06-17T12:57:06.337Z,4.62
2018-06-17T13:03:01.291Z,5.11
2018-06-17T13:08:56.358Z,4.64
2018-06-17T13:14:51.283Z,5.88
2018-06-17T13:20:46.339Z,6.47
2018-06-17T13:26:41.289Z,6.15
2018-06-17T13:32:36.306Z,6.12
2018-06-17T13:38:31.268Z,6.03
2018-06-17T13:44:26.278Z,6.83
2018-06-17T13:50:21.317Z,6.97
2018-06-17T13:56:16.315Z,7.09
2018-06-17T14:02:11.295Z,7.72
2018-06-17T14:08:06.303Z,7.36
2018-06-17T14:14:01.332Z,6.9
2018-06-17T14:19:56.352Z,7.74
2018-06-17T14:25:51.289Z,7.37
2018-06-17T14:31:46.290Z,6.97
2018-06-17T14:37:41.341Z,6.9
2018-06-17T14:43:36.297Z,6.84
2018-06-17T14:49:31.317Z,6.78
2018-06-17T14:55:26.286Z,8.1
2018-06-17T15:01:21.293Z,8.45
2018-06-17T15:07:16.364Z,7.85
2018-06-17T15:13:11.365Z,9.16
2018-06-17T15:19:06.308Z,6.84
2018-06-17T15:25:01.322Z,5.81
2018-06-17T15:30:56.338Z,6.95
2018-06-17T15:36:51.334Z,7.23
2018-06-17T15:42:46.333Z,7.47
2018-06-17T15:48:41.329Z,7.07
2018-06-17T15:54:36.284Z,6.73
2018-06-17T16:00:31.303Z,6.51
2018-06-17T16:06:26.332Z,7.58
2018-06-17T16:12:21.374Z,6.01
2018-06-17T16:18:16.342Z,7.2
2018-06-17T16:24:11.329Z,6.45
2018-06-17T16:30:06.296Z,6.23
2018-06-17T16:36:01.311Z,7.98
2018-06-17T16:41:56.359Z,8
2018-06-17T16:47:51.347Z,6.83
2018-06-17T16:53:46.326Z,6.89
2018-06-17T16:59:41.317Z,6.37
2018-06-17T17:05:36.321Z,6.96
2018-06-17T17:11:31.384Z,7.21
2018-06-17T17:17:26.339Z,6.51
2018-06-17T17:23:21.418Z,5.84
2018-06-17T17:29:16.338Z,6.78
2018-06-17T17:35:11.311Z,6.47
2018-06-17T17:41:06.352Z,5.81
2018-06-17T17:47:01.327Z,7.96
2018-06-17T17:52:56.313Z,6.13
2018-06-17T17:58:51.313Z,6.08
2018-06-17T18:04:46.302Z,6.17
2018-06-17T18:10:42.046Z,7
2018-06-17T18:16:36.322Z,5.06
2018-06-17T18:22:31.334Z,5.57
2018-06-17T18:28:26.318Z,5.82
2018-06-17T18:34:21.301Z,6.25
2018-06-17T18:40:16.321Z,6.42
2018-06-17T18:46:11.363Z,6.41
2018-06-17T18:52:06.336Z,6.52
2018-06-17T18:58:01.394Z,6.24
2018-06-17T19:03:56.359Z,8.38
2018-06-17T19:09:51.348Z,9.12
2018-06-17T19:15:46.377Z,10.21
2018-06-17T19:21:41.356Z,9.12
2018-06-17T19:27:36.379Z,7.33
2018-06-17T19:33:31.337Z,7.13
2018-06-17T19:39:26.349Z,7.29
2018-06-17T19:45:21.345Z,7.26
2018-06-17T19:51:16.373Z,6.98
2018-06-17T19:57:11.343Z,10.57
2018-06-17T20:03:06.355Z,6.11
2018-06-17T20:09:01.334Z,6.67
2018-06-17T20:14:56.340Z,7.32
2018-06-17T20:20:51.367Z,6.88
2018-06-17T20:26:46.336Z,7.33
2018-06-17T20:32:41.423Z,8.21
2018-06-17T20:38:36.388Z,9.58
2018-06-17T20:44:32.532Z,8.88
2018-06-17T20:50:26.395Z,8.21
2018-06-17T20:56:21.375Z,6.78
2018-06-17T21:02:16.355Z,9.76
2018-06-17T21:08:11.396Z,8
2018-06-17T21:14:06.380Z,7.51
2018-06-17T21:20:01.364Z,7.65
2018-06-17T21:25:56.354Z,8.09
2018-06-17T21:31:51.389Z,8.15
2018-06-17T21:37:46.430Z,8.35
2018-06-17T21:43:41.388Z,8.15
2018-06-17T21:49:36.379Z,8.7
2018-06-17T21:55:31.352Z,8.82
2018-06-17T22:01:26.360Z,8.82
2018-06-17T22:07:21.415Z,8.12
2018-06-17T22:13:16.348Z,8.39
2018-06-17T22:19:11.340Z,15.14
2018-06-17T22:25:06.373Z,8.44
2018-06-17T22:31:01.371Z,7.93
2018-06-17T22:36:56.343Z,7.43
2018-06-17T22:42:51.405Z,8.09
2018-06-17T22:48:46.386Z,7.58
2018-06-17T22:54:41.365Z,8.83
2018-06-17T23:00:36.363Z,7.97
2018-06-17T23:06:31.366Z,8.71
2018-06-17T23:12:26.381Z,7.98
2018-06-17T23:18:21.384Z,8.2
2018-06-17T23:24:16.365Z,7.63
2018-06-17T23:30:11.376Z,8.87
2018-06-17T23:36:06.384Z,7.97
2018-06-17T23:42:01.438Z,8.29
2018-06-17T23:47:56.393Z,8.61
2018-06-17T23:53:51.444Z,8.69
2018-06-17T23:59:46.362Z,7.88
